createdAt,value
2022-11-20T00:01:49.450Z,15.40
2022-11-20T00:04:51.101Z,15.40
2022-11-20T00:07:52.741Z,14.87
2022-11-20T00:10:54.291Z,11.97
2022-11-20T00:13:58.138Z,11.47
2022-11-20T00:16:59.742Z,12.17
2022-11-20T00:20:01.292Z,11.13
2022-11-20T00:23:02.906Z,13.60
2022-11-20T00:26:08.997Z,13.97
2022-11-20T00:29:11.549Z,16.87
2022-11-20T00:32:13.161Z,12.77
2022-11-20T00:35:14.773Z,14.80
2022-11-20T00:38:16.364Z,12.70
2022-11-20T00:41:17.954Z,11.60
2022-11-20T00:44:19.624Z,12.80
2022-11-20T00:47:21.226Z,10.70
2022-11-20T00:50:22.818Z,10.93
2022-11-20T00:53:24.585Z,11.60
2022-11-20T00:56:26.652Z,14.97
2022-11-20T00:59:28.495Z,12.53
2022-11-20T01:02:30.107Z,15.47
2022-11-20T01:05:34.946Z,13.57
2022-11-20T01:08:36.971Z,14.20
2022-11-20T01:11:39.872Z,11.10
2022-11-20T01:14:41.452Z,13.17
2022-11-20T01:17:43.100Z,12.70
2022-11-20T01:20:44.758Z,11.63
2022-11-20T01:23:46.859Z,11.03
2022-11-20T01:26:49.471Z,14.10
2022-11-20T01:29:50.997Z,12.67
2022-11-20T01:32:52.585Z,12.13
2022-11-20T01:35:54.460Z,13.77
2022-11-20T01:38:56.955Z,15.97
2022-11-20T01:42:16.966Z,11.73
2022-11-20T01:45:37.425Z,10.43
2022-11-20T01:48:41.223Z,10.83
2022-11-20T01:51:51.182Z,10.47
2022-11-20T01:55:00.231Z,12.00
2022-11-20T01:58:02.824Z,14.60
2022-11-20T02:01:04.982Z,12.63
2022-11-20T02:04:08.359Z,13.57
2022-11-20T02:07:10.289Z,13.73
2022-11-20T02:10:12.404Z,10.63
2022-11-20T02:13:32.366Z,12.93
2022-11-20T02:16:41.473Z,9.30
2022-11-20T02:19:43.036Z,11.80
2022-11-20T02:23:04.913Z,11.37
2022-11-20T02:26:08.514Z,10.63
2022-11-20T02:29:10.388Z,29.17
2022-11-20T02:32:22.082Z,31.00
2022-11-20T02:35:23.664Z,16.33
2022-11-20T02:38:25.439Z,16.30
2022-11-20T02:41:36.935Z,11.90
2022-11-20T02:44:38.613Z,14.13
2022-11-20T02:47:40.183Z,12.87
2022-11-20T02:50:41.819Z,12.33
2022-11-20T02:53:43.383Z,13.93
2022-11-20T02:56:45.005Z,11.67
2022-11-20T02:59:46.635Z,12.10
2022-11-20T03:02:48.347Z,9.80
2022-11-20T03:05:49.946Z,10.90
2022-11-20T03:08:51.578Z,10.67
2022-11-20T03:11:53.214Z,10.23
2022-11-20T03:14:54.770Z,11.50
2022-11-20T03:17:56.695Z,8.30
2022-11-20T03:20:59.959Z,9.80
2022-11-20T03:24:01.799Z,12.50
2022-11-20T03:27:03.430Z,9.80
2022-11-20T03:30:05.862Z,10.20
2022-11-20T03:33:07.507Z,10.63
2022-11-20T03:36:10.239Z,15.47
2022-11-20T03:39:11.932Z,9.00
2022-11-20T03:42:32.088Z,14.00
2022-11-20T03:45:33.622Z,9.63
2022-11-20T03:48:35.767Z,10.30
2022-11-20T03:51:37.495Z,10.20
2022-11-20T03:54:39.147Z,11.57
2022-11-20T03:57:40.762Z,9.80
2022-11-20T04:00:42.367Z,8.23
2022-11-20T04:03:44.728Z,10.80
2022-11-20T04:06:46.360Z,12.37
2022-11-20T04:09:47.931Z,12.53
2022-11-20T04:12:49.474Z,11.57
2022-11-20T04:15:51.132Z,13.00
2022-11-20T04:18:56.715Z,9.93
2022-11-20T04:21:58.261Z,8.90
2022-11-20T04:24:59.870Z,9.37
2022-11-20T04:28:01.575Z,11.23
2022-11-20T04:31:11.348Z,13.77
2022-11-20T04:34:12.952Z,12.50
2022-11-20T04:37:14.546Z,12.40
2022-11-20T04:40:16.131Z,9.80
2022-11-20T04:43:17.747Z,10.13
2022-11-20T04:46:20.043Z,11.00
2022-11-20T04:49:21.817Z,8.20
2022-11-20T04:52:23.797Z,13.37
2022-11-20T04:55:25.344Z,11.83
2022-11-20T04:58:26.907Z,9.27
2022-11-20T05:01:28.580Z,9.97
2022-11-20T05:04:30.147Z,11.60
2022-11-20T05:07:31.751Z,8.47
2022-11-20T05:10:33.457Z,9.70
2022-11-20T05:13:35.056Z,10.40
2022-11-20T05:16:39.765Z,10.13
2022-11-20T05:19:41.383Z,7.93
2022-11-20T05:22:43.354Z,8.03
2022-11-20T05:25:44.910Z,8.27
2022-11-20T05:28:46.652Z,9.80
2022-11-20T05:31:48.409Z,9.43
2022-11-20T05:34:50.068Z,7.47
2022-11-20T05:37:51.676Z,11.63
2022-11-20T05:40:53.246Z,6.03
2022-11-20T05:43:57.256Z,7.93
2022-11-20T05:46:58.875Z,7.40
2022-11-20T05:50:00.478Z,10.17
2022-11-20T05:53:02.102Z,8.30
2022-11-20T05:56:08.113Z,8.33
2022-11-20T05:59:09.823Z,9.53
2022-11-20T06:02:11.686Z,12.53
2022-11-20T06:05:13.396Z,9.80
2022-11-20T06:08:14.986Z,6.63
2022-11-20T06:11:17.180Z,8.00
2022-11-20T06:14:18.763Z,11.00
2022-11-20T06:17:20.337Z,11.30
2022-11-20T06:20:22.448Z,6.97
2022-11-20T06:23:24.036Z,11.10
2022-11-20T06:26:26.758Z,11.13
2022-11-20T06:29:32.717Z,7.40
2022-11-20T06:32:35.586Z,8.77
2022-11-20T06:35:37.211Z,8.40
2022-11-20T06:38:39.380Z,7.90
2022-11-20T06:41:40.940Z,6.47
2022-11-20T06:44:42.631Z,4.97
2022-11-20T06:47:44.209Z,11.53
2022-11-20T06:50:45.876Z,6.83
2022-11-20T06:53:47.459Z,7.87
2022-11-20T06:56:49.449Z,8.20
2022-11-20T06:59:51.028Z,5.40
2022-11-20T07:02:52.731Z,9.23
2022-11-20T07:05:57.658Z,8.53
2022-11-20T07:08:59.248Z,11.13
2022-11-20T07:12:01.406Z,5.17
2022-11-20T07:15:03.008Z,11.97
2022-11-20T07:18:04.719Z,8.43
2022-11-20T07:21:10.772Z,9.30
2022-11-20T07:24:12.357Z,9.37
2022-11-20T07:27:14.204Z,8.53
2022-11-20T07:30:16.448Z,8.20
2022-11-20T07:33:18.100Z,7.67
2022-11-20T07:36:19.732Z,10.10
2022-11-20T07:39:21.586Z,11.20
2022-11-20T07:42:23.410Z,7.13
2022-11-20T07:45:26.411Z,9.37
2022-11-20T07:48:28.075Z,6.97
2022-11-20T07:51:30.426Z,9.03
2022-11-20T07:54:32.045Z,10.73
2022-11-20T07:57:33.654Z,8.17
2022-11-20T08:00:35.272Z,10.03
2022-11-20T08:03:38.759Z,8.33
2022-11-20T08:06:40.427Z,9.63
2022-11-20T08:09:42.071Z,8.30
2022-11-20T08:13:06.448Z,8.53
2022-11-20T08:16:08.069Z,8.93
2022-11-20T08:19:09.807Z,7.87
2022-11-20T08:22:11.424Z,12.77
2022-11-20T08:25:13.075Z,15.73
2022-11-20T08:28:20.698Z,10.97
2022-11-20T08:31:23.924Z,8.97
2022-11-20T08:34:25.611Z,9.83
2022-11-20T08:37:27.199Z,10.30
2022-11-20T08:40:28.785Z,10.73
2022-11-20T08:43:30.486Z,11.90
2022-11-20T08:46:34.281Z,10.17
2022-11-20T08:49:35.836Z,15.97
2022-11-20T08:52:39.782Z,10.00
2022-11-20T08:55:41.679Z,10.70
2022-11-20T08:59:15.443Z,10.57
2022-11-20T09:02:04.871Z,10.67
2022-11-20T09:05:07.220Z,10.60
2022-11-20T09:08:08.837Z,9.80
2022-11-20T09:11:10.762Z,11.60
2022-11-20T09:14:12.304Z,13.07
2022-11-20T09:17:15.896Z,13.47
2022-11-20T09:20:17.496Z,13.73
2022-11-20T09:23:19.292Z,12.70
2022-11-20T09:26:20.910Z,14.97
2022-11-20T09:29:23.148Z,14.20
2022-11-20T09:32:25.134Z,12.27
2022-11-20T09:35:26.758Z,12.93
2022-11-20T09:38:28.368Z,18.37
2022-11-20T09:41:40.104Z,13.07
2022-11-20T09:44:47.759Z,13.63
2022-11-20T09:47:52.120Z,12.33
2022-11-20T09:51:13.990Z,12.57
2022-11-20T09:54:19.043Z,11.87
2022-11-20T09:57:22.857Z,14.57
2022-11-20T10:00:24.564Z,13.33
2022-11-20T10:03:35.764Z,15.73
2022-11-20T10:06:44.761Z,13.90
2022-11-20T10:09:51.905Z,15.23
2022-11-20T10:13:01.749Z,15.07
2022-11-20T10:16:22.020Z,15.67
2022-11-20T10:19:32.565Z,14.20
2022-11-20T10:22:36.880Z,13.27
2022-11-20T10:25:47.837Z,13.77
2022-11-20T10:28:57.066Z,15.40
2022-11-20T10:32:04.100Z,14.17
2022-11-20T10:35:05.777Z,15.40
2022-11-20T10:38:12.755Z,14.60
2022-11-20T10:41:26.979Z,17.77
2022-11-20T10:44:51.118Z,15.77
2022-11-20T10:47:57.633Z,19.27
2022-11-20T10:51:15.086Z,15.63
2022-11-20T10:54:27.903Z,16.70
2022-11-20T10:57:47.735Z,22.07
2022-11-20T11:00:49.394Z,16.60
2022-11-20T11:03:52.823Z,17.37
2022-11-20T11:06:56.480Z,16.80
2022-11-20T11:09:58.362Z,18.33
2022-11-20T11:12:59.942Z,15.87
2022-11-20T11:16:01.672Z,18.03
2022-11-20T11:19:06.952Z,15.83
2022-11-20T11:22:11.300Z,20.20
2022-11-20T11:25:22.012Z,17.10
2022-11-20T11:28:25.923Z,18.83
2022-11-20T11:31:29.513Z,18.03
2022-11-20T11:34:32.897Z,18.87
2022-11-20T11:37:36.984Z,18.00
2022-11-20T11:40:39.289Z,15.60
2022-11-20T11:43:59.762Z,15.40
2022-11-20T11:47:01.531Z,21.23
2022-11-20T11:50:09.220Z,18.00
2022-11-20T11:53:14.239Z,18.07
2022-11-20T11:56:15.936Z,18.37
2022-11-20T11:59:23.773Z,17.07
2022-11-20T12:02:32.437Z,20.27
2022-11-20T12:05:37.176Z,16.80
2022-11-20T12:08:45.337Z,14.43
2022-11-20T12:12:11.178Z,17.17
2022-11-20T12:15:14.006Z,18.60
2022-11-20T12:18:16.928Z,18.13
2022-11-20T12:21:21.399Z,15.83
2022-11-20T12:24:40.295Z,20.10
2022-11-20T12:28:00.452Z,18.57
2022-11-20T12:31:12.244Z,17.73
2022-11-20T12:34:13.765Z,14.70
2022-11-20T12:37:15.325Z,17.47
2022-11-20T12:40:25.904Z,19.37
2022-11-20T12:43:48.276Z,20.83
2022-11-20T12:46:54.848Z,18.93
2022-11-20T12:49:59.147Z,19.67
2022-11-20T12:53:03.442Z,21.47
2022-11-20T12:56:29.456Z,17.10
2022-11-20T12:59:42.495Z,19.73
2022-11-20T13:02:56.488Z,18.93
2022-11-20T13:06:24.154Z,23.07
2022-11-20T13:09:26.491Z,17.43
2022-11-20T13:12:36.997Z,22.17
2022-11-20T13:15:46.696Z,20.00
2022-11-20T13:18:48.342Z,20.30
2022-11-20T13:21:51.430Z,18.97
2022-11-20T13:24:53.695Z,19.17
2022-11-20T13:27:56.264Z,18.67
2022-11-20T13:30:59.243Z,18.97
2022-11-20T13:34:02.676Z,20.27
2022-11-20T13:37:07.010Z,20.33
2022-11-20T13:40:08.604Z,21.60
2022-11-20T13:43:24.153Z,20.87
2022-11-20T13:46:36.085Z,21.53
2022-11-20T13:49:45.826Z,19.90
2022-11-20T13:53:04.076Z,22.53
2022-11-20T13:56:05.716Z,22.63
2022-11-20T13:59:19.197Z,25.90
2022-11-20T14:02:21.938Z,36.40
2022-11-20T14:05:24.258Z,37.00
2022-11-20T14:08:31.632Z,32.10
2022-11-20T14:11:34.443Z,37.37
2022-11-20T14:14:37.420Z,37.13
2022-11-20T14:17:39.290Z,34.10
2022-11-20T14:20:42.150Z,26.23
2022-11-20T14:23:43.750Z,25.37
2022-11-20T14:26:46.552Z,24.07
2022-11-20T14:29:49.782Z,20.47
2022-11-20T14:32:52.729Z,20.87
2022-11-20T14:35:58.267Z,19.63
2022-11-20T14:38:59.959Z,21.77
2022-11-20T14:42:01.647Z,20.10
2022-11-20T14:45:03.802Z,22.50
2022-11-20T14:48:05.816Z,25.17
2022-11-20T14:51:09.892Z,22.23
2022-11-20T14:54:11.967Z,28.37
2022-11-20T14:57:32.284Z,28.77
2022-11-20T15:00:34.857Z,25.37
2022-11-20T15:03:37.641Z,19.90
2022-11-20T15:06:50.168Z,27.60
2022-11-20T15:10:08.543Z,26.30
2022-11-20T15:13:14.463Z,18.87
2022-11-20T15:16:19.938Z,22.30
2022-11-20T15:19:25.566Z,32.97
2022-11-20T15:22:27.619Z,33.20
2022-11-20T15:25:29.352Z,43.63
2022-11-20T15:28:38.053Z,34.10
2022-11-20T15:31:42.485Z,34.30
2022-11-20T15:34:44.149Z,37.13
2022-11-20T15:37:45.849Z,36.33
2022-11-20T15:40:47.466Z,27.97
2022-11-20T15:43:49.210Z,28.37
2022-11-20T15:46:50.923Z,26.17
2022-11-20T15:49:52.575Z,26.13
2022-11-20T15:52:54.143Z,19.37
2022-11-20T15:55:55.697Z,20.07
2022-11-20T15:58:57.334Z,23.60
2022-11-20T16:01:58.932Z,28.10
2022-11-20T16:05:00.516Z,21.03
2022-11-20T16:08:04.972Z,19.47
2022-11-20T16:11:19.234Z,60.80
2022-11-20T16:14:39.516Z,39.20
2022-11-20T16:17:43.993Z,25.23
2022-11-20T16:20:49.934Z,26.57
2022-11-20T16:23:51.512Z,34.87
2022-11-20T16:26:54.132Z,27.30
2022-11-20T16:29:55.742Z,45.93
2022-11-20T16:32:57.303Z,33.27
2022-11-20T16:35:58.880Z,42.57
2022-11-20T16:39:01.546Z,42.23
2022-11-20T16:42:06.315Z,44.03
2022-11-20T16:45:08.243Z,40.70
2022-11-20T16:48:15.125Z,39.13
2022-11-20T16:51:16.755Z,33.17
2022-11-20T16:54:21.200Z,40.30
2022-11-20T16:57:23.551Z,42.50
2022-11-20T17:00:25.203Z,37.80
2022-11-20T17:03:26.866Z,37.43
2022-11-20T17:06:29.991Z,36.43
2022-11-20T17:09:31.604Z,39.03
2022-11-20T17:12:33.169Z,34.10
2022-11-20T17:15:34.746Z,50.77
2022-11-20T17:18:36.478Z,150.53
2022-11-20T17:21:38.260Z,113.83
2022-11-20T17:24:39.965Z,37.47
2022-11-20T17:27:41.593Z,42.70
2022-11-20T17:30:43.197Z,34.50
2022-11-20T17:33:46.171Z,81.50
2022-11-20T17:36:47.853Z,47.50
2022-11-20T17:39:49.463Z,42.37
2022-11-20T17:42:51.019Z,56.07
2022-11-20T17:45:52.624Z,54.07
2022-11-20T17:48:55.131Z,48.60
2022-11-20T17:51:56.788Z,53.27
2022-11-20T17:54:58.459Z,52.60
2022-11-20T17:58:02.893Z,75.43
2022-11-20T18:01:05.610Z,47.93
2022-11-20T18:04:07.435Z,37.70
2022-11-20T18:07:09.128Z,29.27
2022-11-20T18:10:11.043Z,36.20
2022-11-20T18:13:12.682Z,36.00
2022-11-20T18:16:14.665Z,27.50
2022-11-20T18:19:18.676Z,32.93
2022-11-20T18:22:20.596Z,28.57
2022-11-20T18:25:22.291Z,39.57
2022-11-20T18:28:29.785Z,25.23
2022-11-20T18:31:31.680Z,20.37
2022-11-20T18:34:33.513Z,25.53
2022-11-20T18:37:35.231Z,20.13
2022-11-20T18:40:37.339Z,19.33
2022-11-20T18:43:58.900Z,14.37
2022-11-20T18:47:01.479Z,15.90
2022-11-20T18:50:04.141Z,12.60
2022-11-20T18:53:05.776Z,16.17
2022-11-20T18:56:10.454Z,14.57
2022-11-20T18:59:12.795Z,17.13
2022-11-20T19:02:15.630Z,21.07
2022-11-20T19:05:17.476Z,23.57
2022-11-20T19:08:21.400Z,48.33
2022-11-20T19:11:28.888Z,21.37
2022-11-20T19:14:30.606Z,43.20
2022-11-20T19:17:33.294Z,22.47
2022-11-20T19:20:35.117Z,20.93
2022-11-20T19:23:37.722Z,23.10
2022-11-20T19:26:43.015Z,28.80
2022-11-20T19:29:49.481Z,28.87
2022-11-20T19:32:53.764Z,24.83
2022-11-20T19:35:55.949Z,22.33
2022-11-20T19:38:57.956Z,21.67
2022-11-20T19:41:59.683Z,20.13
2022-11-20T19:45:01.606Z,19.60
2022-11-20T19:48:08.120Z,19.23
2022-11-20T19:51:13.175Z,20.67
2022-11-20T19:54:18.020Z,23.77
2022-11-20T19:57:19.660Z,40.57
2022-11-20T20:00:29.694Z,30.73
2022-11-20T20:03:34.400Z,20.43
2022-11-20T20:06:38.819Z,28.23
2022-11-20T20:09:41.749Z,35.13
2022-11-20T20:12:43.411Z,27.83
2022-11-20T20:15:45.031Z,31.03
2022-11-20T20:18:46.807Z,29.20
2022-11-20T20:21:49.749Z,27.30
2022-11-20T20:24:52.244Z,25.67
2022-11-20T20:27:54.030Z,38.10
2022-11-20T20:30:55.812Z,44.53
2022-11-20T20:33:57.682Z,41.07
2022-11-20T20:36:59.276Z,33.23
2022-11-20T20:40:00.899Z,29.20
2022-11-20T20:43:02.478Z,25.60
2022-11-20T20:46:04.197Z,25.63
2022-11-20T20:49:05.975Z,33.80
2022-11-20T20:52:08.347Z,43.97
2022-11-20T20:55:10.583Z,34.43
2022-11-20T20:58:12.283Z,28.27
2022-11-20T21:01:14.934Z,24.50
2022-11-20T21:04:16.663Z,21.87
2022-11-20T21:07:18.410Z,14.77
2022-11-20T21:10:23.723Z,18.53
2022-11-20T21:13:25.696Z,14.57
2022-11-20T21:16:27.560Z,15.10
2022-11-20T21:19:29.282Z,18.13
2022-11-20T21:22:36.232Z,9.50
2022-11-20T21:25:38.463Z,13.00
2022-11-20T21:28:40.145Z,8.63
2022-11-20T21:31:41.695Z,6.93
2022-11-20T21:34:43.250Z,8.37
2022-11-20T21:37:44.828Z,7.33
2022-11-20T21:40:46.523Z,8.97
2022-11-20T21:44:09.165Z,7.77
2022-11-20T21:47:09.817Z,8.83
2022-11-20T21:50:11.370Z,9.33
2022-11-20T21:53:13.012Z,12.03
2022-11-20T21:56:51.550Z,9.07
2022-11-20T22:00:06.550Z,7.83
2022-11-20T22:03:11.770Z,9.97
2022-11-20T22:06:13.304Z,8.47
2022-11-20T22:09:14.929Z,8.77
2022-11-20T22:12:16.495Z,7.37
2022-11-20T22:15:39.002Z,18.10
2022-11-20T22:18:46.604Z,11.13
2022-11-20T22:21:49.397Z,9.97
2022-11-20T22:24:50.975Z,12.40
2022-11-20T22:27:52.536Z,12.33
2022-11-20T22:30:56.935Z,16.13
2022-11-20T22:33:59.062Z,17.37
2022-11-20T22:37:00.634Z,19.30
2022-11-20T22:40:02.254Z,11.30
2022-11-20T22:43:03.837Z,11.17
2022-11-20T22:46:08.229Z,11.50
2022-11-20T22:49:09.875Z,14.80
2022-11-20T22:52:11.474Z,13.17
2022-11-20T22:55:16.213Z,14.77
2022-11-20T22:58:18.143Z,11.60
2022-11-20T23:01:21.202Z,15.17
2022-11-20T23:04:23.011Z,15.40
2022-11-20T23:07:24.793Z,19.73
2022-11-20T23:10:26.408Z,15.30
2022-11-20T23:13:28.310Z,14.77
2022-11-20T23:16:31.454Z,13.37
2022-11-20T23:19:33.072Z,18.57
2022-11-20T23:22:34.685Z,15.17
2022-11-20T23:25:36.329Z,19.27
2022-11-20T23:28:38.418Z,17.77
2022-11-20T23:31:40.003Z,15.87
2022-11-20T23:34:41.641Z,17.13
2022-11-20T23:37:43.222Z,17.00
2022-11-20T23:40:48.435Z,18.07
2022-11-20T23:43:50.007Z,24.67
2022-11-20T23:46:51.700Z,17.50
2022-11-20T23:49:53.327Z,22.70
2022-11-20T23:52:54.956Z,19.73
2022-11-20T23:55:57.560Z,23.30
2022-11-20T23:58:59.246Z,16.57
